Miguel Esteban, Spain
Current Conditions -  °F | °C
As of 4:00 PM on Wednesday 22 Oct 2014 (Local Time) from LEAO Reporting Station
Clear Clear  
Wind Chill: 79°   Ceiling: Unl
Heat Index: 79°   Visibility: 6mi
Dew Point: 34°   Wind: 6mph
Humidity: 20%   Direction: 30°NNE
Pressure: 30.3"   Gusts: 17mph
Location:  39.52°N, 3.08°W
Report Text: LEAO 221400Z 03005G15KT 330V090 CAVOK 26/01 Q1026
Loading
Personal Weather Stations






























Interactive Weather Map
Tropical Storm Tracking
New forecast layout! Learn more

10-Day Weather Forecast

Advertisements
Track Severe Weather on mobile